N221S VDSV-VDPP
Flight info
| Callsign | N221S |
|---|---|
| Flight time | 0h 31m |
| Altitude | 19000 |
| Route | KOS BASAK3A |
| Aircraft | C25C/M-SDE2E3FGHRWXY/LB1 |
Departure
| Time | 2026-04-23 14:57 |
|---|---|
| Airport | Sihanouk International Airport (VDSV) |
Arrival
| Time | 2026-04-23 15:28 |
|---|---|
| Airport | Phnom Penh International Airport (VDPP) |
| Time | Latitude | Longitude | Altitude | Speed | Heading |
|---|---|---|---|---|---|
| 2026-04-23 14:52 | 10.58101 | 103.63798 | 6 ft | 0 kts | 295° |
| 2026-04-23 14:53 | 10.58102 | 103.63793 | 6 ft | 4 kts | 281° |
| 2026-04-23 14:53 | 10.58064 | 103.63736 | 6 ft | 17 kts | 208° |
| 2026-04-23 14:53 | 10.57923 | 103.63660 | 6 ft | 28 kts | 207° |
| 2026-04-23 14:53 | 10.57750 | 103.63569 | 8 ft | 27 kts | 210° |
| 2026-04-23 14:54 | 10.57587 | 103.63481 | 8 ft | 26 kts | 207° |
| 2026-04-23 14:54 | 10.57436 | 103.63401 | 9 ft | 24 kts | 206° |
| 2026-04-23 14:54 | 10.57285 | 103.63321 | 7 ft | 25 kts | 208° |
| 2026-04-23 14:54 | 10.57109 | 103.63227 | 8 ft | 33 kts | 207° |
| 2026-04-23 14:55 | 10.56907 | 103.63119 | 7 ft | 32 kts | 207° |
| 2026-04-23 14:55 | 10.56722 | 103.63021 | 8 ft | 29 kts | 208° |
| 2026-04-23 14:55 | 10.56550 | 103.62929 | 8 ft | 24 kts | 207° |
| 2026-04-23 14:55 | 10.56500 | 103.62897 | 8 ft | 5 kts | 219° |
| 2026-04-23 14:56 | 10.56488 | 103.62908 | 8 ft | 2 kts | 68° |
| 2026-04-23 14:56 | 10.56500 | 103.62912 | 8 ft | 4 kts | 359° |
| 2026-04-23 14:56 | 10.56552 | 103.62930 | 8 ft | 13 kts | 29° |
| 2026-04-23 14:56 | 10.56701 | 103.63010 | 7 ft | 40 kts | 28° |
| 2026-04-23 14:57 | 10.57213 | 103.63280 | 38 ft | 123 kts | 27° |
| 2026-04-23 14:57 | 10.58029 | 103.63733 | 523 ft | 144 kts | 30° |
| 2026-04-23 14:57 | 10.58901 | 103.64257 | 1267 ft | 142 kts | 37° |
| 2026-04-23 14:57 | 10.59523 | 103.65027 | 1982 ft | 146 kts | 54° |
| 2026-04-23 14:58 | 10.60223 | 103.65786 | 2715 ft | 148 kts | 51° |
| 2026-04-23 14:58 | 10.60878 | 103.66647 | 3265 ft | 166 kts | 53° |
| 2026-04-23 14:58 | 10.61682 | 103.67634 | 3688 ft | 196 kts | 54° |
| 2026-04-23 14:58 | 10.62591 | 103.68796 | 4191 ft | 223 kts | 53° |
| 2026-04-23 14:59 | 10.63611 | 103.70079 | 4855 ft | 237 kts | 54° |
| 2026-04-23 14:59 | 10.64649 | 103.71382 | 5782 ft | 240 kts | 52° |
| 2026-04-23 14:59 | 10.65700 | 103.72710 | 6630 ft | 242 kts | 52° |
| 2026-04-23 14:59 | 10.66790 | 103.74083 | 7132 ft | 261 kts | 52° |
| 2026-04-23 15:00 | 10.67956 | 103.75564 | 7711 ft | 270 kts | 52° |
| 2026-04-23 15:00 | 10.69145 | 103.77051 | 8519 ft | 272 kts | 51° |
| 2026-04-23 15:00 | 10.70332 | 103.78560 | 9264 ft | 275 kts | 52° |
| 2026-04-23 15:00 | 10.71544 | 103.80082 | 9994 ft | 278 kts | 51° |
| 2026-04-23 15:01 | 10.72763 | 103.81630 | 10641 ft | 282 kts | 52° |
| 2026-04-23 15:01 | 10.74004 | 103.83188 | 11275 ft | 285 kts | 51° |
| 2026-04-23 15:01 | 10.75251 | 103.84774 | 11907 ft | 289 kts | 51° |
| 2026-04-23 15:01 | 10.76523 | 103.86371 | 12534 ft | 292 kts | 51° |
| 2026-04-23 15:02 | 10.77364 | 103.87440 | 12950 ft | 293 kts | 51° |
| 2026-04-23 15:02 | 10.79089 | 103.89613 | 13720 ft | 298 kts | 51° |
| 2026-04-23 15:02 | 10.80372 | 103.91247 | 14216 ft | 300 kts | 51° |
| 2026-04-23 15:02 | 10.81691 | 103.92904 | 14731 ft | 302 kts | 51° |
| 2026-04-23 15:03 | 10.83010 | 103.94581 | 15221 ft | 305 kts | 51° |
| 2026-04-23 15:03 | 10.84353 | 103.96270 | 15722 ft | 307 kts | 51° |
| 2026-04-23 15:03 | 10.85694 | 103.97977 | 16225 ft | 309 kts | 51° |
| 2026-04-23 15:03 | 10.87058 | 103.99692 | 16681 ft | 313 kts | 51° |
| 2026-04-23 15:04 | 10.88425 | 104.01431 | 17164 ft | 315 kts | 51° |
| 2026-04-23 15:04 | 10.89805 | 104.03169 | 17642 ft | 317 kts | 51° |
| 2026-04-23 15:04 | 10.91192 | 104.04931 | 18063 ft | 321 kts | 51° |
| 2026-04-23 15:04 | 10.92581 | 104.06684 | 18471 ft | 322 kts | 51° |
| 2026-04-23 15:05 | 10.93991 | 104.08474 | 18782 ft | 328 kts | 51° |
| 2026-04-23 15:05 | 10.95455 | 104.10325 | 18869 ft | 344 kts | 51° |
| 2026-04-23 15:05 | 10.96999 | 104.12284 | 18892 ft | 364 kts | 51° |
| 2026-04-23 15:05 | 10.98628 | 104.14344 | 18899 ft | 379 kts | 51° |
| 2026-04-23 15:06 | 11.00292 | 104.16454 | 18897 ft | 386 kts | 51° |
| 2026-04-23 15:06 | 11.01976 | 104.18585 | 18898 ft | 386 kts | 51° |
| 2026-04-23 15:06 | 11.03660 | 104.20723 | 18897 ft | 385 kts | 51° |
| 2026-04-23 15:06 | 11.05333 | 104.22839 | 18884 ft | 383 kts | 51° |
| 2026-04-23 15:07 | 11.06992 | 104.24949 | 18885 ft | 381 kts | 51° |
| 2026-04-23 15:07 | 11.08629 | 104.27019 | 18877 ft | 379 kts | 51° |
| 2026-04-23 15:07 | 11.10274 | 104.29113 | 18884 ft | 378 kts | 51° |
| 2026-04-23 15:07 | 11.11881 | 104.31221 | 18880 ft | 377 kts | 57° |
| 2026-04-23 15:08 | 11.12843 | 104.33683 | 18869 ft | 375 kts | 75° |
| 2026-04-23 15:08 | 11.13605 | 104.36220 | 18861 ft | 375 kts | 72° |
| 2026-04-23 15:08 | 11.14358 | 104.38763 | 18860 ft | 376 kts | 74° |
| 2026-04-23 15:09 | 11.15825 | 104.43910 | 18863 ft | 371 kts | 73° |
| 2026-04-23 15:09 | 11.16554 | 104.46387 | 18857 ft | 364 kts | 73° |
| 2026-04-23 15:09 | 11.17289 | 104.48888 | 18859 ft | 373 kts | 73° |
| 2026-04-23 15:09 | 11.18028 | 104.51454 | 18629 ft | 377 kts | 73° |
| 2026-04-23 15:10 | 11.18517 | 104.53133 | 18331 ft | 371 kts | 73° |
| 2026-04-23 15:10 | 11.19480 | 104.56449 | 17694 ft | 356 kts | 73° |
| 2026-04-23 15:10 | 11.20168 | 104.58810 | 17362 ft | 341 kts | 73° |
| 2026-04-23 15:10 | 11.20823 | 104.61065 | 16954 ft | 332 kts | 73° |
| 2026-04-23 15:11 | 11.21469 | 104.63295 | 16545 ft | 323 kts | 73° |
| 2026-04-23 15:11 | 11.22096 | 104.65454 | 16141 ft | 314 kts | 72° |
| 2026-04-23 15:11 | 11.22707 | 104.67554 | 15753 ft | 305 kts | 73° |
| 2026-04-23 15:11 | 11.23304 | 104.69606 | 15376 ft | 299 kts | 73° |
| 2026-04-23 15:12 | 11.23887 | 104.71622 | 14993 ft | 294 kts | 73° |
| 2026-04-23 15:12 | 11.24463 | 104.73603 | 14616 ft | 289 kts | 73° |
| 2026-04-23 15:12 | 11.25028 | 104.75557 | 14249 ft | 286 kts | 73° |
| 2026-04-23 15:12 | 11.25590 | 104.77491 | 13877 ft | 283 kts | 73° |
| 2026-04-23 15:13 | 11.26144 | 104.79407 | 13492 ft | 281 kts | 73° |
| 2026-04-23 15:13 | 11.26698 | 104.81313 | 13114 ft | 278 kts | 73° |
| 2026-04-23 15:13 | 11.27241 | 104.83191 | 12752 ft | 275 kts | 73° |
| 2026-04-23 15:13 | 11.27780 | 104.85048 | 12395 ft | 272 kts | 73° |
| 2026-04-23 15:14 | 11.28313 | 104.86891 | 12043 ft | 270 kts | 73° |
| 2026-04-23 15:14 | 11.28842 | 104.88720 | 11687 ft | 268 kts | 73° |
| 2026-04-23 15:14 | 11.29363 | 104.90517 | 11343 ft | 267 kts | 73° |
| 2026-04-23 15:14 | 11.29884 | 104.92324 | 10998 ft | 266 kts | 73° |
| 2026-04-23 15:15 | 11.30409 | 104.94127 | 10644 ft | 265 kts | 73° |
| 2026-04-23 15:15 | 11.30925 | 104.95926 | 10294 ft | 264 kts | 73° |
| 2026-04-23 15:15 | 11.31447 | 104.97713 | 9946 ft | 263 kts | 73° |
| 2026-04-23 15:15 | 11.31956 | 104.99495 | 9587 ft | 262 kts | 73° |
| 2026-04-23 15:16 | 11.32474 | 105.01268 | 9226 ft | 260 kts | 73° |
| 2026-04-23 15:16 | 11.32806 | 105.02435 | 9010 ft | 257 kts | 74° |
| 2026-04-23 15:16 | 11.33305 | 105.04148 | 8684 ft | 248 kts | 73° |
| 2026-04-23 15:16 | 11.33800 | 105.05799 | 8380 ft | 240 kts | 69° |
| 2026-04-23 15:17 | 11.35212 | 105.07454 | 7975 ft | 233 kts | 31° |
| 2026-04-23 15:17 | 11.36205 | 105.07843 | 7770 ft | 232 kts | 10° |
| 2026-04-23 15:17 | 11.37793 | 105.07784 | 7470 ft | 227 kts | 350° |
| 2026-04-23 15:17 | 11.39337 | 105.07493 | 7175 ft | 224 kts | 348° |
| 2026-04-23 15:18 | 11.40853 | 105.07168 | 6884 ft | 221 kts | 348° |
| 2026-04-23 15:18 | 11.42354 | 105.06869 | 6572 ft | 220 kts | 348° |
| 2026-04-23 15:18 | 11.43854 | 105.06571 | 6273 ft | 218 kts | 347° |
| 2026-04-23 15:18 | 11.45329 | 105.06284 | 5998 ft | 215 kts | 348° |
| 2026-04-23 15:19 | 11.46792 | 105.05995 | 5719 ft | 213 kts | 348° |
| 2026-04-23 15:19 | 11.48242 | 105.05708 | 5435 ft | 212 kts | 348° |
| 2026-04-23 15:19 | 11.49691 | 105.05424 | 5163 ft | 212 kts | 349° |
| 2026-04-23 15:19 | 11.51140 | 105.05135 | 4881 ft | 212 kts | 349° |
| 2026-04-23 15:20 | 11.52588 | 105.04854 | 4602 ft | 212 kts | 349° |
| 2026-04-23 15:20 | 11.54019 | 105.04566 | 4321 ft | 212 kts | 349° |
| 2026-04-23 15:20 | 11.55469 | 105.04286 | 4040 ft | 212 kts | 350° |
| 2026-04-23 15:20 | 11.56922 | 105.03994 | 3759 ft | 213 kts | 350° |
| 2026-04-23 15:21 | 11.58377 | 105.03710 | 3480 ft | 213 kts | 349° |
| 2026-04-23 15:21 | 11.59838 | 105.03419 | 3200 ft | 214 kts | 350° |
| 2026-04-23 15:21 | 11.61227 | 105.02935 | 3010 ft | 209 kts | 321° |
| 2026-04-23 15:21 | 11.62234 | 105.01933 | 2974 ft | 197 kts | 316° |
| 2026-04-23 15:22 | 11.63224 | 105.01019 | 2963 ft | 187 kts | 313° |
| 2026-04-23 15:22 | 11.64132 | 105.00096 | 2881 ft | 183 kts | 314° |
| 2026-04-23 15:22 | 11.65052 | 104.99192 | 2730 ft | 184 kts | 311° |
| 2026-04-23 15:22 | 11.65791 | 104.98156 | 2572 ft | 179 kts | 282° |
| 2026-04-23 15:23 | 11.65940 | 104.96933 | 2459 ft | 168 kts | 260° |
| 2026-04-23 15:23 | 11.65544 | 104.95884 | 2394 ft | 155 kts | 228° |
| 2026-04-23 15:23 | 11.64858 | 104.95078 | 2287 ft | 152 kts | 226° |
| 2026-04-23 15:23 | 11.64126 | 104.94292 | 2160 ft | 154 kts | 221° |
| 2026-04-23 15:24 | 11.63384 | 104.93498 | 2022 ft | 154 kts | 223° |
| 2026-04-23 15:24 | 11.62635 | 104.92732 | 1892 ft | 151 kts | 223° |
| 2026-04-23 15:24 | 11.61925 | 104.91984 | 1764 ft | 140 kts | 224° |
| 2026-04-23 15:24 | 11.61288 | 104.91326 | 1678 ft | 121 kts | 225° |
| 2026-04-23 15:25 | 11.60738 | 104.90730 | 1568 ft | 101 kts | 225° |
| 2026-04-23 15:25 | 11.60273 | 104.90228 | 1419 ft | 97 kts | 226° |
| 2026-04-23 15:25 | 11.59774 | 104.89720 | 1226 ft | 104 kts | 221° |
| 2026-04-23 15:25 | 11.59247 | 104.89213 | 1063 ft | 100 kts | 227° |
| 2026-04-23 15:26 | 11.58773 | 104.88690 | 888 ft | 101 kts | 227° |
| 2026-04-23 15:26 | 11.58295 | 104.88156 | 807 ft | 102 kts | 225° |
| 2026-04-23 15:26 | 11.57775 | 104.87661 | 701 ft | 104 kts | 224° |
| 2026-04-23 15:26 | 11.57270 | 104.87119 | 581 ft | 106 kts | 225° |
| 2026-04-23 15:27 | 11.56740 | 104.86574 | 433 ft | 109 kts | 223° |
| 2026-04-23 15:27 | 11.56212 | 104.86031 | 319 ft | 109 kts | 225° |
| 2026-04-23 15:27 | 11.55681 | 104.85476 | 171 ft | 110 kts | 224° |
| 2026-04-23 15:27 | 11.55169 | 104.84946 | 61 ft | 95 kts | 225° |
| 2026-04-23 15:28 | 11.54755 | 104.84520 | 53 ft | 75 kts | 225° |
| 2026-04-23 15:28 | 11.54435 | 104.84187 | 55 ft | 59 kts | 226° |
| 2026-04-23 15:28 | 11.54185 | 104.83925 | 57 ft | 34 kts | 226° |
| 2026-04-23 15:28 | 11.54144 | 104.83804 | 55 ft | 17 kts | 314° |
| 2026-04-23 15:29 | 11.54242 | 104.83739 | 55 ft | 17 kts | 15° |
| 2026-04-23 15:29 | 11.54326 | 104.83821 | 52 ft | 17 kts | 45° |
| 2026-04-23 15:29 | 11.54407 | 104.83904 | 55 ft | 16 kts | 45° |
| 2026-04-23 15:29 | 11.54486 | 104.83988 | 55 ft | 16 kts | 45° |
| 2026-04-23 15:30 | 11.54567 | 104.84071 | 54 ft | 17 kts | 46° |
| 2026-04-23 15:30 | 11.54657 | 104.84165 | 52 ft | 21 kts | 46° |
| 2026-04-23 15:30 | 11.54773 | 104.84286 | 54 ft | 26 kts | 45° |
| 2026-04-23 15:30 | 11.54908 | 104.84426 | 54 ft | 28 kts | 45° |
| 2026-04-23 15:31 | 11.55041 | 104.84563 | 54 ft | 26 kts | 45° |
| 2026-04-23 15:31 | 11.55130 | 104.84595 | 53 ft | 13 kts | 22° |
| 2026-04-23 15:31 | 11.55198 | 104.84657 | 54 ft | 13 kts | 46° |
| 2026-04-23 15:31 | 11.55267 | 104.84722 | 51 ft | 14 kts | 37° |
| 2026-04-23 15:32 | 11.55336 | 104.84791 | 54 ft | 14 kts | 46° |
| 2026-04-23 15:32 | 11.55397 | 104.84857 | 53 ft | 8 kts | 46° |
| 2026-04-23 15:32 | 11.55432 | 104.84844 | 54 ft | 6 kts | 319° |
| 2026-04-23 15:32 | 11.55448 | 104.84830 | 49 ft | 0 kts | 320° |
| 2026-04-23 15:33 | 11.55449 | 104.84828 | 54 ft | 0 kts | 320° |